Terminal Aerodrome Forecast
Issued by NWS

Home | Current Version | Previous Version | Text Only | Print | Product List | Glossary On
Versions: 1 2 3 4 5 6 7 8 9 10 11 12 13 14 15
194
FTUS45 KFGZ 261126
TAFSEZ
TAF
KSEZ 261126Z 2612/2712 VRB05KT P6SM SCT060 OVC070
     FM261700 22011KT P6SM VCSH SCT045 OVC060
      TEMPO 2620/2624 5SM -SHRA OVC035
     FM270100 22010KT P6SM BKN050 BKN150=

USA.gov is the U.S. government's official web portal to all federal, state and local government web resources and services.